Schneifelwetter: Wetterstation Hallschlag, 537 m . NN
Wetterdaten: Mittwoch, 12.08.2009
Datum Zeit Temp. A. Feuchte A. Luftdruck Regen Wind Richtung Richtung Sonnenschein Helligkeit T Regen Taupunkt Windchill
12.08.2009 00:00 13,2 C 89 % 1020 hPa 0,0 l/m 0,0 km/h (0 Bft) W 265 0 min 0 lux 0,00 min 11,4 C 13,2 C
12.08.2009 00:15 13,0 C 89 % 1020 hPa 0,0 l/m 0,0 km/h (0 Bft) W 265 0 min 0 lux 0,00 min 11,2 C 13,0 C
12.08.2009 00:30 12,7 C 90 % 1020 hPa 0,0 l/m 0,0 km/h (0 Bft) W 265 0 min 0 lux 0,00 min 11,1 C 12,7 C
12.08.2009 00:45 12,4 C 91 % 1020 hPa 0,0 l/m 0,0 km/h (0 Bft) W 265 0 min 0 lux 0,00 min 11,0 C 12,4 C
12.08.2009 01:00 12,4 C 91 % 1020 hPa 0,0 l/m 0,0 km/h (0 Bft) W 265 0 min 0 lux 0,00 min 11,0 C 12,4 C
12.08.2009 01:15 12,1 C 92 % 1020 hPa 0,0 l/m 3,8 km/h (1 Bft) W 265 0 min 0 lux 0,00 min 10,8 C 12,1 C
12.08.2009 01:30 11,7 C 91 % 1020 hPa 0,0 l/m 0,0 km/h (0 Bft) W 265 0 min 0 lux 0,00 min 10,3 C 11,7 C
12.08.2009 01:45 11,3 C 91 % 1020 hPa 0,0 l/m 0,0 km/h (0 Bft) W 265 0 min 0 lux 0,00 min 9,9 C 11,3 C
12.08.2009 02:00 11,0 C 92 % 1020 hPa 0,0 l/m 0,0 km/h (0 Bft) W 265 0 min 0 lux 0,00 min 9,8 C 11,0 C
12.08.2009 02:15 10,7 C 93 % 1020 hPa 0,0 l/m 0,0 km/h (0 Bft) W 260 0 min 0 lux 0,00 min 9,6 C 10,7 C
12.08.2009 02:30 10,8 C 94 % 1020 hPa 0,0 l/m 0,0 km/h (0 Bft) W 260 0 min 0 lux 0,00 min 9,9 C 10,8 C
12.08.2009 02:45 10,8 C 93 % 1020 hPa 0,0 l/m 3,4 km/h (1 Bft) W 265 0 min 0 lux 0,00 min 9,7 C 10,8 C
12.08.2009 03:00 10,7 C 94 % 1020 hPa 0,0 l/m 0,0 km/h (0 Bft) W 265 0 min 0 lux 0,00 min 9,8 C 10,7 C
12.08.2009 03:15 10,4 C 94 % 1020 hPa 0,0 l/m 0,0 km/h (0 Bft) W 265 0 min 0 lux 0,00 min 9,5 C 10,4 C
12.08.2009 03:30 10,4 C 94 % 1020 hPa 0,0 l/m 0,0 km/h (0 Bft) W 265 0 min 0 lux 0,00 min 9,5 C 10,4 C
12.08.2009 03:45 10,8 C 95 % 1020 hPa 0,0 l/m 1,5 km/h (1 Bft) W22.5 275 0 min 0 lux 0,00 min 10,0 C 10,8 C
12.08.2009 04:00 10,8 C 96 % 1020 hPa 0,0 l/m 7,3 km/h (2 Bft) W22.5 270 0 min 0 lux 0,00 min 10,2 C 10,2 C
12.08.2009 04:15 10,9 C 96 % 1020 hPa 0,0 l/m 5,9 km/h (2 Bft) W-SW22.5 250 0 min 0 lux 0,00 min 10,3 C 10,9 C
12.08.2009 04:30 11,0 C 96 % 1020 hPa 0,0 l/m 7,0 km/h (2 Bft) W-SW22.5 250 0 min 0 lux 0,00 min 10,4 C 10,6 C
12.08.2009 04:45 11,1 C 96 % 1020 hPa 0,0 l/m 8,1 km/h (2 Bft) W-SW22.5 255 0 min 0 lux 0,00 min 10,5 C 9,9 C
12.08.2009 05:00 11,0 C 96 % 1020 hPa 0,0 l/m 4,0 km/h (1 Bft) W-SW 255 0 min 0 lux 0,00 min 10,4 C 11,0 C
12.08.2009 05:15 10,7 C 95 % 1020 hPa 0,0 l/m 0,0 km/h (0 Bft) W-SW 255 0 min 0 lux 0,00 min 9,9 C 10,7 C
12.08.2009 05:30 10,2 C 95 % 1020 hPa 0,0 l/m 0,0 km/h (0 Bft) W-SW 255 0 min 0 lux 0,00 min 9,4 C 10,2 C
12.08.2009 05:45 9,9 C 95 % 1020 hPa 0,0 l/m 0,0 km/h (0 Bft) W-SW 255 0 min 0 lux 0,00 min 9,1 C 9,9 C
12.08.2009 06:00 9,6 C 96 % 1020 hPa 0,0 l/m 0,0 km/h (0 Bft) W-SW 255 0 min 44 lux 0,00 min 9,0 C 9,6 C
12.08.2009 06:15 9,4 C 95 % 1020 hPa 0,0 l/m 0,0 km/h (0 Bft) W-SW 255 0 min 257 lux 0,00 min 8,6 C 9,4 C
12.08.2009 06:30 9,6 C 96 % 1020 hPa 0,0 l/m 0,0 km/h (0 Bft) W-SW 255 0 min 1,13 klux 0,00 min 9,0 C 9,6 C
12.08.2009 06:45 9,5 C 95 % 1020 hPa 0,0 l/m 0,2 km/h (0 Bft) W67.5 275 0 min 2,74 klux 0,00 min 8,7 C 9,5 C
12.08.2009 07:00 9,8 C 96 % 1020 hPa 0,0 l/m 5,6 km/h (1 Bft) W-SW22.5 250 0 min 5,72 klux 0,00 min 9,2 C 9,8 C
12.08.2009 07:15 10,4 C 97 % 1020 hPa 0,0 l/m 4,8 km/h (1 Bft) W 270 0 min 6,12 klux 0,00 min 9,9 C 10,4 C
12.08.2009 07:30 11,2 C 97 % 1020 hPa 0,3 l/m 0,2 km/h (0 Bft) W-SW 245 0 min 6,16 klux 15,00 min 10,7 C 11,2 C
12.08.2009 07:45 11,6 C 97 % 1020 hPa 0,0 l/m 0,0 km/h (0 Bft) W-SW 250 0 min 8,10 klux 0,00 min 11,1 C 11,6 C
12.08.2009 08:00 12,1 C 97 % 1020 hPa 0,0 l/m 0,0 km/h (0 Bft) W-SW 250 0 min 24,4 klux 0,00 min 11,6 C 12,1 C
12.08.2009 08:15 13,0 C 96 % 1020 hPa 0,0 l/m 10,8 km/h (2 Bft) W22.5 260 0 min 31,6 klux 0,00 min 12,4 C 10,5 C
12.08.2009 08:30 13,6 C 96 % 1020 hPa 0,0 l/m 11,8 km/h (2 Bft) W22.5 260 0 min 36,1 klux 0,00 min 13,0 C 10,7 C
12.08.2009 08:45 14,3 C 94 % 1020 hPa 0,0 l/m 9,0 km/h (2 Bft) W-SW 250 0 min 41,6 klux 0,00 min 13,3 C 12,8 C
12.08.2009 09:00 15,3 C 92 % 1020 hPa 0,0 l/m 14,6 km/h (3 Bft) W-SW22.5 255 0 min 41,2 klux 0,00 min 14,0 C 11,7 C
12.08.2009 09:15 15,9 C 88 % 1020 hPa 0,0 l/m 14,2 km/h (3 Bft) W-SW45 255 15 min 47,6 klux 0,00 min 13,9 C 12,5 C
12.08.2009 09:30 16,6 C 87 % 1020 hPa 0,0 l/m 13,3 km/h (3 Bft) W-SW22.5 250 15 min 62,8 klux 0,00 min 14,4 C 13,7 C
12.08.2009 09:45 17,5 C 85 % 1020 hPa 0,0 l/m 15,6 km/h (3 Bft) W-SW22.5 240 15 min 54,3 klux 0,00 min 14,9 C 14,1 C
12.08.2009 10:00 18,5 C 80 % 1020 hPa 0,0 l/m 16,3 km/h (3 Bft) W45 260 15 min 56,4 klux 0,00 min 15,0 C 15,1 C
12.08.2009 10:15 18,4 C 80 % 1020 hPa 0,0 l/m 16,1 km/h (3 Bft) W-SW22.5 250 0 min 40,7 klux 0,00 min 14,9 C 15,0 C
12.08.2009 10:30 18,6 C 79 % 1020 hPa 0,0 l/m 20,5 km/h (4 Bft) W-SW22.5 255 15 min 60,8 klux 0,00 min 14,9 C 14,3 C
12.08.2009 10:45 19,4 C 79 % 1020 hPa 0,0 l/m 19,1 km/h (3 Bft) W-SW45 245 15 min 65,2 klux 0,00 min 15,7 C 15,6 C
12.08.2009 11:01 20,0 C 74 % 1020 hPa 0,0 l/m 23,7 km/h (4 Bft) W-SW45 255 16 min 71,7 klux 0,00 min 15,2 C 15,6 C
12.08.2009 11:16 19,6 C 73 % 1020 hPa 0,0 l/m 25,5 km/h (4 Bft) W-SW45 245 0 min 38,0 klux 0,00 min 14,6 C 14,8 C
12.08.2009 11:31 20,0 C 74 % 1020 hPa 0,0 l/m 27,4 km/h (4 Bft) W45 265 15 min 88,1 klux 0,00 min 15,2 C 15,0 C
12.08.2009 11:46 20,8 C 70 % 1019 hPa 0,0 l/m 32,1 km/h (5 Bft) W22.5 260 15 min 69,0 klux 0,00 min 15,1 C 15,6 C
12.08.2009 12:01 20,6 C 69 % 1019 hPa 0,0 l/m 29,6 km/h (5 Bft) W-SW22.5 255 15 min 74,6 klux 0,00 min 14,7 C 15,6 C
12.08.2009 12:16 20,9 C 69 % 1019 hPa 0,0 l/m 30,5 km/h (5 Bft) W-SW67.5 245 15 min 89,5 klux 0,00 min 15,0 C 15,9 C
12.08.2009 12:31 20,8 C 67 % 1019 hPa 0,0 l/m 25,2 km/h (4 Bft) SW45 230 15 min 71,2 klux 0,00 min 14,4 C 16,4 C
12.08.2009 12:46 20,5 C 67 % 1019 hPa 0,0 l/m 37,0 km/h (5 Bft) W-SW67.5 255 15 min 54,5 klux 0,00 min 14,2 C 14,7 C
12.08.2009 13:01 20,7 C 68 % 1019 hPa 0,0 l/m 25,9 km/h (4 Bft) W-SW45 245 15 min 76,1 klux 0,00 min 14,6 C 16,2 C
12.08.2009 13:16 20,5 C 68 % 1019 hPa 0,0 l/m 30,6 km/h (5 Bft) W-SW67.5 240 15 min 78,7 klux 0,00 min 14,4 C 15,4 C
12.08.2009 13:31 20,6 C 69 % 1019 hPa 0,0 l/m 28,8 km/h (4 Bft) W-SW67.5 255 15 min 83,9 klux 0,00 min 14,7 C 15,7 C
12.08.2009 13:46 20,8 C 68 % 1019 hPa 0,0 l/m 26,5 km/h (4 Bft) W-SW67.5 245 15 min 83,2 klux 0,00 min 14,7 C 16,3 C
12.08.2009 14:01 21,5 C 67 % 1019 hPa 0,0 l/m 24,9 km/h (4 Bft) W-SW67.5 250 15 min 82,9 klux 0,00 min 15,1 C 17,4 C
12.08.2009 14:16 21,7 C 66 % 1019 hPa 0,0 l/m 32,9 km/h (5 Bft) W-SW45 255 15 min 92,8 klux 0,00 min 15,1 C 16,8 C
12.08.2009 14:31 22,4 C 66 % 1019 hPa 0,0 l/m 24,0 km/h (4 Bft) W-SW45 245 15 min 102 klux 0,00 min 15,7 C 18,8 C
12.08.2009 14:46 22,7 C 64 % 1018 hPa 0,0 l/m 32,2 km/h (5 Bft) W-SW45 250 15 min 98,1 klux 0,00 min 15,5 C 18,3 C
12.08.2009 15:00 22,2 C 65 % 1018 hPa 0,0 l/m 25,0 km/h (4 Bft) W45 260 14 min 47,9 klux 0,00 min 15,3 C 18,4 C
12.08.2009 15:15 22,8 C 65 % 1018 hPa 0,0 l/m 26,3 km/h (4 Bft) W22.5 265 15 min 97,6 klux 0,00 min 15,9 C 19,0 C
12.08.2009 15:30 23,3 C 63 % 1018 hPa 0,0 l/m 26,9 km/h (4 Bft) W67.5 260 15 min 89,5 klux 0,00 min 15,9 C 19,7 C
12.08.2009 15:45 23,0 C 63 % 1018 hPa 0,0 l/m 33,1 km/h (5 Bft) W-SW67.5 245 15 min 55,4 klux 0,00 min 15,6 C 18,7 C
12.08.2009 16:00 22,3 C 64 % 1018 hPa 0,0 l/m 27,6 km/h (4 Bft) W45 265 0 min 41,8 klux 0,00 min 15,2 C 18,2 C
12.08.2009 16:15 22,6 C 65 % 1018 hPa 0,0 l/m 30,0 km/h (5 Bft) W45 275 15 min 58,2 klux 0,00 min 15,7 C 18,4 C
12.08.2009 16:30 22,6 C 64 % 1018 hPa 0,0 l/m 28,0 km/h (4 Bft) W22.5 265 0 min 34,8 klux 0,00 min 15,4 C 18,6 C
12.08.2009 16:45 22,0 C 65 % 1018 hPa 0,0 l/m 28,1 km/h (4 Bft) W45 270 0 min 22,5 klux 0,00 min 15,1 C 17,7 C
12.08.2009 17:00 21,8 C 66 % 1018 hPa 0,0 l/m 27,3 km/h (4 Bft) W22.5 270 0 min 26,0 klux 0,00 min 15,2 C 17,5 C
12.08.2009 17:15 21,7 C 68 % 1017 hPa 0,0 l/m 25,9 km/h (4 Bft) W45 270 15 min 48,5 klux 0,00 min 15,5 C 17,6 C
12.08.2009 17:30 22,1 C 66 % 1017 hPa 0,0 l/m 28,6 km/h (4 Bft) W22.5 265 0 min 43,8 klux 0,00 min 15,4 C 17,8 C
12.08.2009 17:45 21,3 C 68 % 1017 hPa 0,0 l/m 22,7 km/h (4 Bft) W22.5 265 0 min 18,5 klux 0,00 min 15,1 C 17,5 C
12.08.2009 18:00 20,9 C 69 % 1017 hPa 0,0 l/m 22,1 km/h (4 Bft) W-SW45 255 0 min 18,9 klux 0,00 min 15,0 C 17,0 C
12.08.2009 18:15 20,8 C 71 % 1017 hPa 0,0 l/m 20,5 km/h (4 Bft) W-SW45 245 0 min 21,4 klux 0,00 min 15,3 C 17,2 C
12.08.2009 18:30 20,6 C 72 % 1017 hPa 0,0 l/m 14,8 km/h (3 Bft) S-SW45 210 0 min 12,6 klux 0,00 min 15,4 C 18,0 C
12.08.2009 18:45 20,2 C 73 % 1017 hPa 0,0 l/m 20,5 km/h (4 Bft) W-SW67.5 240 0 min 11,8 klux 0,00 min 15,2 C 16,4 C
12.08.2009 19:00 20,3 C 74 % 1016 hPa 0,0 l/m 14,7 km/h (3 Bft) W-SW67.5 240 0 min 13,7 klux 0,00 min 15,5 C 17,7 C
12.08.2009 19:15 20,1 C 74 % 1016 hPa 0,0 l/m 18,1 km/h (3 Bft) W-SW45 245 0 min 7,36 klux 0,00 min 15,3 C 16,7 C
12.08.2009 19:30 19,6 C 75 % 1016 hPa 0,0 l/m 15,7 km/h (3 Bft) SW45 230 0 min 2,44 klux 0,00 min 15,0 C 16,6 C
12.08.2009 19:45 19,2 C 78 % 1016 hPa 0,3 l/m 31,7 km/h (5 Bft) W45 260 0 min 1,96 klux 15,00 min 15,3 C 13,4 C
12.08.2009 20:00 18,2 C 82 % 1016 hPa 0,6 l/m 23,3 km/h (4 Bft) W22.5 260 0 min 1,81 klux 15,00 min 15,1 C 13,2 C
12.08.2009 20:15 17,9 C 84 % 1016 hPa 0,3 l/m 13,0 km/h (3 Bft) W-SW 245 0 min 1,56 klux 15,00 min 15,2 C 15,3 C
12.08.2009 20:30 17,6 C 86 % 1016 hPa 0,9 l/m 15,6 km/h (3 Bft) W22.5 265 0 min 1,16 klux 15,00 min 15,2 C 14,2 C
12.08.2009 20:45 17,5 C 87 % 1016 hPa 1,8 l/m 11,3 km/h (2 Bft) W-SW 255 0 min 329 lux 15,00 min 15,3 C 15,4 C
12.08.2009 21:00 17,3 C 87 % 1016 hPa 0,3 l/m 5,9 km/h (2 Bft) W 260 0 min 194 lux 15,00 min 15,1 C 17,3 C
12.08.2009 21:15 17,2 C 87 % 1016 hPa 0,0 l/m 0,0 km/h (0 Bft) W-SW 255 0 min 154 lux 0,00 min 15,0 C 17,2 C
12.08.2009 21:30 17,1 C 88 % 1016 hPa 0,0 l/m 1,5 km/h (1 Bft) W 260 0 min 30 lux 0,00 min 15,1 C 17,1 C
12.08.2009 21:45 17,0 C 89 % 1016 hPa 0,0 l/m 1,0 km/h (0 Bft) W-SW 255 0 min 4 lux 0,00 min 15,2 C 17,0 C
12.08.2009 22:00 17,0 C 89 % 1016 hPa 0,0 l/m 5,6 km/h (1 Bft) W-SW 255 0 min 0 lux 0,00 min 15,2 C 17,0 C
12.08.2009 22:15 17,0 C 89 % 1016 hPa 0,0 l/m 8,5 km/h (2 Bft) W-SW 255 0 min 0 lux 0,00 min 15,2 C 16,0 C
12.08.2009 22:30 16,8 C 89 % 1016 hPa 0,0 l/m 12,3 km/h (3 Bft) W 260 0 min 0 lux 0,00 min 15,0 C 14,2 C
12.08.2009 22:45 16,7 C 89 % 1016 hPa 0,0 l/m 6,6 km/h (2 Bft) W 260 0 min 0 lux 0,00 min 14,9 C 16,6 C
12.08.2009 23:00 16,6 C 90 % 1016 hPa 0,3 l/m 7,2 km/h (2 Bft) W 260 0 min 0 lux 15,00 min 15,0 C 16,2 C
12.08.2009 23:15 16,6 C 91 % 1016 hPa 0,0 l/m 0,9 km/h (0 Bft) W-SW 255 0 min 0 lux 0,00 min 15,1 C 16,6 C
12.08.2009 23:30 16,6 C 91 % 1016 hPa 0,0 l/m 0,0 km/h (0 Bft) W-SW 255 0 min 0 lux 0,00 min 15,1 C 16,6 C
12.08.2009 23:45 16,6 C 92 % 1016 hPa 0,0 l/m 8,9 km/h (2 Bft) W 260 0 min 0 lux 0,00 min 15,3 C 15,4 C
_ Min-Zeit 06:15 15:30 19:00 - 00:00 - - - - - 06:15 06:15
Minimum _ 9,4 C 63 % 1016 hPa - 0,0 km/h (0 Bft) - - - - - 8,6 C 9,4 C
_ Max-Zeit 15:30 07:15 00:00 20:45 12:46 - - 11:01 14:31 07:30 15:15 15:30
Maximum _ 23,3 C 97 % 1020 hPa 1,8 l/m 37,0 km/h
W-SW (5 Bft)
- - 16 min 102 klux 15,00 min 15,9 C 19,7 C
Durchschnitt _ 16,5 C 83 % 1019 hPa #4,8 l/m 13,3 km/h (3 Bft) W-SW - #6:45 h 26,3 klux #2:00 h 13,3 C 14,3 C